Time;durP1;ratioP1;P1;durP2;ratioP2;P2;SDS_P1;SDS_P2;PMS_P1;PMS_P2;Temp;Humidity;BMP_temperature;BMP_pressure;BME280_temperature;BME280_humidity;BME280_pressure;Samples;Min_cycle;Max_cycle;Signal;HPM_P1;HPM_P2
2022/12/16 00:00:32;;;;;;;139.73;20.10;;;;;;;4.27;100.00;101476.16;2096365;28;20470;-66
2022/12/16 00:01:33;;;;;;;84.27;20.97;;;;;;;3.17;100.00;101307.56;2089533;28;20726;-66
2022/12/16 00:02:34;;;;;;;100.45;21.38;;;;;;;3.59;100.00;101368.56;2095537;28;20177;-66
2022/12/16 00:03:35;;;;;;;92.33;21.77;;;;;;;4.06;100.00;101435.47;2090666;28;20743;-66
2022/12/16 00:04:35;;;;;;;87.77;19.70;;;;;;;4.28;100.00;101466.75;2091241;28;20198;-66
2022/12/16 00:05:36;;;;;;;68.93;20.80;;;;;;;4.19;100.00;101458.00;2093689;28;20200;-66
2022/12/16 00:06:36;;;;;;;59.60;18.90;;;;;;;4.19;100.00;101463.50;2096095;28;20200;-66
2022/12/16 00:07:37;;;;;;;129.67;22.10;;;;;;;4.13;100.00;101463.03;2097255;28;20533;-66
2022/12/16 00:08:38;;;;;;;127.13;22.33;;;;;;;4.20;100.00;101446.66;2095488;28;20186;-66
2022/12/16 00:09:39;;;;;;;99.43;20.38;;;;;;;4.24;100.00;101446.72;2097081;28;20548;-66
2022/12/16 00:10:54;;;;;;;76.97;19.50;;;;;;;4.24;100.00;101454.94;2097730;28;20201;-66
2022/12/16 00:11:55;;;;;;;97.30;19.73;;;;;;;3.77;100.00;101369.59;2097383;28;20171;-66
2022/12/16 00:12:55;;;;;;;118.73;20.37;;;;;;;4.30;100.00;101462.50;2096862;28;20200;-66
2022/12/16 00:13:56;;;;;;;125.73;20.73;;;;;;;4.27;100.00;101465.97;2092826;28;20186;-66
2022/12/16 00:14:56;;;;;;;61.87;18.10;;;;;;;4.32;100.00;101473.09;2090657;28;20197;-66
2022/12/16 00:15:57;;;;;;;103.33;19.63;;;;;;;3.41;100.00;101326.34;2092761;28;20685;-66
2022/12/16 00:16:57;;;;;;;92.68;19.40;;;;;;;4.37;100.00;101473.56;2093221;28;20198;-66
2022/12/16 00:17:58;;;;;;;87.47;18.27;;;;;;;4.01;100.00;101424.03;2088276;28;20175;-66
2022/12/16 00:18:59;;;;;;;83.70;17.97;;;;;;;4.43;100.00;101480.34;2091366;28;20209;-66
2022/12/16 00:20:01;;;;;;;114.00;20.03;;;;;;;4.42;100.00;101469.72;2097359;28;20232;-66
2022/12/16 00:21:03;;;;;;;58.15;18.48;;;;;;;4.51;100.00;101489.47;2089414;28;20175;-66
2022/12/16 00:22:03;;;;;;;91.72;18.50;;;;;;;4.50;100.00;101485.13;2088636;28;20273;-67
2022/12/16 00:23:03;;;;;;;85.17;18.37;;;;;;;4.49;100.00;101480.78;2094870;28;20185;-66
2022/12/16 00:24:04;;;;;;;126.70;19.20;;;;;;;4.48;100.00;101470.97;2096552;28;20291;-66
2022/12/16 00:25:05;;;;;;;187.47;21.70;;;;;;;4.51;100.00;101467.50;2092679;28;20202;-66
2022/12/16 00:26:06;;;;;;;125.70;19.77;;;;;;;4.44;100.00;101468.19;2091280;28;20174;-66
2022/12/16 00:27:07;;;;;;;99.07;18.85;;;;;;;4.36;100.00;101466.50;2094917;28;20721;-66
2022/12/16 00:28:08;;;;;;;84.07;17.87;;;;;;;4.47;100.00;101477.66;2088559;28;20621;-66
2022/12/16 00:29:10;;;;;;;83.22;17.05;;;;;;;4.44;100.00;101470.94;2096526;28;20185;-66
2022/12/16 00:30:11;;;;;;;80.32;17.55;;;;;;;4.48;100.00;101479.22;2097015;28;20190;-66
2022/12/16 00:31:11;;;;;;;109.15;18.58;;;;;;;3.71;100.00;101351.88;2096875;28;20200;-67
2022/12/16 00:32:12;;;;;;;89.30;17.73;;;;;;;4.42;100.00;101462.28;2097259;28;20239;-66
2022/12/16 00:33:12;;;;;;;55.47;16.50;;;;;;;4.48;100.00;101468.25;2092647;28;20675;-66
2022/12/16 00:34:14;;;;;;;88.20;18.00;;;;;;;3.51;100.00;101310.09;2090180;28;20199;-66
2022/12/16 00:35:14;;;;;;;126.20;18.33;;;;;;;4.53;100.00;101471.47;2090691;28;20186;-66
2022/12/16 00:36:15;;;;;;;75.07;16.63;;;;;;;4.42;100.00;101451.28;2095884;28;20755;-66
2022/12/16 00:37:15;;;;;;;70.80;18.00;;;;;;;4.43;100.00;101455.63;2088656;28;20187;-66
2022/12/16 00:38:16;;;;;;;94.03;18.03;;;;;;;4.48;100.00;101454.50;2089269;28;20261;-66
2022/12/16 00:39:16;;;;;;;85.90;16.97;;;;;;;4.44;100.00;101457.22;2094154;28;20201;-66
2022/12/16 00:40:17;;;;;;;76.23;16.57;;;;;;;4.54;100.00;101469.50;2091748;28;20209;-66
2022/12/16 00:41:18;;;;;;;129.50;20.37;;;;;;;4.52;100.00;101461.63;2088771;28;20273;-66
2022/12/16 00:42:18;;;;;;;97.97;17.50;;;;;;;4.42;100.00;101447.78;2088621;28;20278;-66
2022/12/16 00:43:19;;;;;;;93.33;17.30;;;;;;;4.28;100.00;101442.88;2093770;28;20186;-66
2022/12/16 00:44:19;;;;;;;79.87;16.60;;;;;;;4.30;100.00;101442.47;2095287;28;20217;-66
2022/12/16 00:45:19;;;;;;;116.73;17.33;;;;;;;4.33;100.00;101448.06;2089056;28;20231;-66
2022/12/16 00:46:20;;;;;;;109.70;16.83;;;;;;;4.32;100.00;101457.41;2096415;28;20655;-66
2022/12/16 00:47:20;;;;;;;117.43;15.57;;;;;;;4.40;100.00;101464.59;2095610;28;20217;-66
2022/12/16 00:48:22;;;;;;;117.27;16.93;;;;;;;4.35;100.00;101453.13;2096585;28;20261;-66
2022/12/16 00:49:23;;;;;;;97.45;15.90;;;;;;;4.31;100.00;101453.09;2092359;28;20199;-66
2022/12/16 00:50:23;;;;;;;79.37;15.60;;;;;;;4.28;100.00;101453.84;2091553;28;20198;-66
2022/12/16 00:51:24;;;;;;;75.60;15.10;;;;;;;4.33;100.00;101444.50;2094864;28;20192;-66
2022/12/16 00:52:24;;;;;;;69.93;16.07;;;;;;;4.36;100.00;101447.28;2092636;28;20193;-66
2022/12/16 00:53:25;;;;;;;104.83;17.07;;;;;;;4.36;100.00;101433.56;2088815;28;20184;-66
2022/12/16 00:54:25;;;;;;;77.93;15.43;;;;;;;4.34;100.00;101443.34;2093002;28;20557;-66
2022/12/16 00:55:26;;;;;;;81.27;15.27;;;;;;;4.29;100.00;101440.91;2090192;28;20248;-67
2022/12/16 00:56:26;;;;;;;68.80;15.63;;;;;;;4.32;100.00;101446.44;2089582;28;20253;-67
2022/12/16 00:57:27;;;;;;;87.03;16.50;;;;;;;3.94;100.00;101389.06;2096896;28;20220;-66
2022/12/16 00:58:27;;;;;;;84.83;16.03;;;;;;;3.40;100.00;101330.25;2095918;28;20225;-67
2022/12/16 00:59:28;;;;;;;79.13;15.90;;;;;;;4.34;100.00;101455.13;2094722;28;20194;-66
2022/12/16 01:00:28;;;;;;;55.93;15.63;;;;;;;4.32;100.00;101451.16;2088632;28;20684;-66
2022/12/16 01:01:28;;;;;;;70.00;15.47;;;;;;;4.24;100.00;101452.19;2094307;28;20190;-66
2022/12/16 01:02:29;;;;;;;83.57;16.27;;;;;;;4.25;100.00;101453.81;2089416;28;20191;-66
2022/12/16 01:03:29;;;;;;;68.33;18.13;;;;;;;3.60;100.00;101350.94;2096146;28;20684;-66
2022/12/16 01:04:30;;;;;;;81.67;16.73;;;;;;;4.16;100.00;101456.78;2095596;28;20275;-66
2022/12/16 01:05:30;;;;;;;70.70;16.93;;;;;;;4.08;100.00;101441.41;2093860;28;20277;-66
2022/12/16 01:06:31;;;;;;;128.17;18.10;;;;;;;3.89;100.00;101419.53;2093564;28;20195;-66
2022/12/16 01:07:31;;;;;;;75.00;16.37;;;;;;;3.88;100.00;101408.94;2088373;28;20195;-66
2022/12/16 01:08:31;;;;;;;83.87;17.00;;;;;;;3.95;100.00;101423.56;2087398;28;20513;-66
2022/12/16 01:09:32;;;;;;;71.60;16.73;;;;;;;4.03;100.00;101427.19;2097344;28;20193;-66
2022/12/16 01:10:33;;;;;;;104.10;17.50;;;;;;;3.99;100.00;101421.66;2095540;28;20196;-66
2022/12/16 01:11:33;;;;;;;93.83;17.63;;;;;;;3.98;100.00;101408.31;2096034;28;21031;-67
2022/12/16 01:12:35;;;;;;;99.13;17.27;;;;;;;4.00;100.00;101403.28;2088485;28;20190;-67
2022/12/16 01:13:35;;;;;;;78.68;16.98;;;;;;;3.90;100.00;101392.94;2088222;28;20197;-66
2022/12/16 01:14:36;;;;;;;97.97;17.53;;;;;;;4.03;100.00;101410.75;2092842;28;20205;-66
2022/12/16 01:15:36;;;;;;;65.17;17.27;;;;;;;3.33;100.00;101289.84;2096656;28;20175;-66
2022/12/16 01:16:37;;;;;;;76.20;18.00;;;;;;;4.11;100.00;101407.72;2096162;28;20170;-66
2022/12/16 01:17:38;;;;;;;90.00;18.03;;;;;;;4.20;100.00;101419.22;2088877;28;20209;-66
2022/12/16 01:18:39;;;;;;;97.13;16.98;;;;;;;4.24;100.00;101413.78;2095316;28;20338;-66
2022/12/16 01:19:39;;;;;;;88.30;17.67;;;;;;;4.22;100.00;101405.94;2096010;28;20217;-66
2022/12/16 01:20:39;;;;;;;85.53;15.87;;;;;;;4.28;100.00;101417.38;2090465;28;20228;-66
2022/12/16 01:21:40;;;;;;;105.80;16.37;;;;;;;3.92;100.00;101360.44;2091793;28;20235;-67
2022/12/16 01:22:40;;;;;;;98.77;16.43;;;;;;;4.03;100.00;101384.13;2091163;28;20232;-66
2022/12/16 01:23:41;;;;;;;90.57;17.83;;;;;;;4.36;100.00;101432.78;2095391;28;20706;-66
2022/12/16 01:24:43;;;;;;;66.37;15.87;;;;;;;4.21;100.00;101425.53;2096407;28;20265;-66
2022/12/16 01:25:43;;;;;;;98.03;17.60;;;;;;;4.39;100.00;101445.75;2088792;28;20537;-66
2022/12/16 01:26:44;;;;;;;96.23;16.67;;;;;;;4.36;100.00;101430.06;2095498;28;20203;-66
2022/12/16 01:27:44;;;;;;;70.23;15.77;;;;;;;4.32;100.00;101420.97;2090127;28;20185;-66
2022/12/16 01:28:48;;;;;;;57.33;16.03;;;;;;;4.34;100.00;101407.66;2093243;28;20668;-66
2022/12/16 01:29:49;;;;;;;159.23;18.55;;;;;;;4.30;100.00;101404.06;2092072;28;20550;-66
2022/12/16 01:31:00;;;;;;;87.85;16.45;;;;;;;4.18;100.00;101410.59;2088260;28;20209;-66
2022/12/16 01:32:00;;;;;;;57.95;16.13;;;;;;;4.18;100.00;101423.50;2092326;28;20197;-66
2022/12/16 01:33:01;;;;;;;69.70;16.63;;;;;;;4.17;100.00;101424.66;2093654;28;20695;-66
2022/12/16 01:34:01;;;;;;;69.67;17.63;;;;;;;4.10;100.00;101430.84;2087883;28;20266;-66
2022/12/16 01:35:02;;;;;;;61.90;16.67;;;;;;;4.02;100.00;101437.38;2096541;28;20211;-66
2022/12/16 01:36:05;;;;;;;60.77;17.67;;;;;;;4.06;100.00;101443.69;2088807;28;20186;-66
2022/12/16 01:37:10;;;;;;;77.43;17.10;;;;;;;4.08;100.00;101446.09;2093411;28;20447;-66
2022/12/16 01:38:10;;;;;;;101.32;17.58;;;;;;;3.30;100.00;101308.97;2096179;28;20204;-67
2022/12/16 01:39:11;;;;;;;91.37;17.33;;;;;;;4.19;100.00;101422.34;2095722;28;20276;-66
2022/12/16 01:40:18;;;;;;;63.97;16.73;;;;;;;4.06;100.00;101397.06;2092223;28;20206;-67
2022/12/16 01:41:18;;;;;;;68.80;17.48;;;;;;;4.11;100.00;101395.97;2088590;28;20666;-66
2022/12/16 01:42:20;;;;;;;50.53;16.27;;;;;;;3.70;100.00;101340.13;2090445;28;20654;-66
2022/12/16 01:43:25;;;;;;;52.35;16.23;;;;;;;4.14;100.00;101401.50;2090054;28;20191;-66
2022/12/16 01:44:26;;;;;;;55.03;17.08;;;;;;;4.24;100.00;101406.34;2095819;28;20544;-66
2022/12/16 01:45:32;;;;;;;53.87;17.33;;;;;;;4.26;100.00;101404.03;2096382;28;20188;-66
2022/12/16 01:46:32;;;;;;;64.28;18.95;;;;;;;4.29;100.00;101391.53;2096453;28;20388;-66
2022/12/16 01:47:33;;;;;;;97.23;20.07;;;;;;;4.27;100.00;101393.84;2095857;28;20654;-66
2022/12/16 01:49:09;;;;;;;62.90;18.90;;;;;;;4.27;100.00;101402.84;2094868;28;20213;-66
2022/12/16 01:50:15;;;;;;;50.92;19.17;;;;;;;4.32;100.00;101408.03;2094955;28;20196;-66
2022/12/16 01:51:27;;;;;;;52.75;18.02;;;;;;;4.33;100.00;101404.16;2091514;28;20183;-66
2022/12/16 01:52:35;;;;;;;65.50;18.73;;;;;;;3.57;100.00;101292.19;2089524;28;20205;-66
2022/12/16 01:53:40;;;;;;;59.33;18.25;;;;;;;4.31;100.00;101403.69;2095325;28;20173;-66
2022/12/16 01:54:53;;;;;;;39.70;17.40;;;;;;;4.14;100.00;101401.50;2091474;28;20463;-67
2022/12/16 01:55:56;;;;;;;34.67;17.00;;;;;;;3.99;100.00;101387.94;2092164;28;20172;-66
2022/12/16 01:57:01;;;;;;;30.88;16.42;;;;;;;3.54;100.00;101316.78;2087758;28;20178;-66
2022/12/16 01:58:11;;;;;;;55.78;17.58;;;;;;;4.04;100.00;101404.88;2088350;28;20183;-66
2022/12/16 01:59:13;;;;;;;42.30;18.65;;;;;;;4.11;100.00;101409.69;2096418;28;20230;-66
2022/12/16 02:00:14;;;;;;;43.30;18.67;;;;;;;3.95;100.00;101398.88;2095773;28;20202;-66
2022/12/16 02:01:15;;;;;;;44.95;18.92;;;;;;;4.17;100.00;101419.19;2089618;28;20218;-66
2022/12/16 02:02:17;;;;;;;32.80;18.55;;;;;;;3.05;100.00;101242.03;2094529;28;20265;-66
2022/12/16 02:03:18;;;;;;;32.38;18.75;;;;;;;4.19;100.00;101423.13;2091604;28;20258;-66
2022/12/16 02:04:18;;;;;;;27.20;17.77;;;;;;;4.12;100.00;101419.50;2091660;28;20264;-66
2022/12/16 02:05:19;;;;;;;32.87;19.27;;;;;;;4.08;100.00;101418.66;2097047;28;20586;-66
2022/12/16 02:06:20;;;;;;;33.40;19.20;;;;;;;4.08;100.00;101427.69;2096587;28;20183;-66
2022/12/16 02:07:20;;;;;;;33.93;20.20;;;;;;;4.10;100.00;101430.06;2089678;28;20790;-66
2022/12/16 02:08:21;;;;;;;29.17;18.40;;;;;;;4.08;100.00;101427.69;2098257;28;20237;-66
2022/12/16 02:09:22;;;;;;;32.17;18.77;;;;;;;4.05;100.00;101431.16;2097285;28;20283;-66
2022/12/16 02:10:42;;;;;;;32.43;20.23;;;;;;;4.04;100.00;101424.09;2098273;28;20198;-67
2022/12/16 02:12:20;;;;;;;32.22;19.77;;;;;;;4.01;100.00;101427.56;2098392;28;20197;-66
2022/12/16 02:13:38;;;;;;;32.30;19.20;;;;;;;4.02;100.00;101429.16;2089072;28;20176;-66
2022/12/16 02:15:00;;;;;;;29.98;19.48;;;;;;;4.02;100.00;101431.91;2093214;28;20255;-66
2022/12/16 02:16:20;;;;;;;30.95;20.05;;;;;;;4.00;100.00;101447.91;2097632;28;20195;-66
2022/12/16 02:17:40;;;;;;;30.38;19.60;;;;;;;3.38;100.00;101349.78;2090690;28;20180;-66
2022/12/16 02:18:57;;;;;;;32.17;19.10;;;;;;;4.06;100.00;101434.69;2094906;28;20175;-67
2022/12/16 02:20:06;;;;;;;33.47;20.90;;;;;;;4.12;100.00;101455.16;2094260;28;20313;-66
2022/12/16 02:21:54;;;;;;;33.45;21.63;;;;;;;4.10;100.00;101455.53;2089770;28;20165;-66
2022/12/16 02:23:18;;;;;;;31.80;21.25;;;;;;;4.07;100.00;101444.50;2093715;28;20696;-66
2022/12/16 02:24:40;;;;;;;35.08;22.67;;;;;;;3.93;100.00;101444.28;2083331;28;20756;-66
2022/12/16 02:26:19;;;;;;;35.97;23.67;;;;;;;3.97;100.00;101451.41;2090032;28;20173;-66
2022/12/16 02:27:47;;;;;;;32.05;22.58;;;;;;;4.00;100.00;101447.16;2091411;28;20191;-66
2022/12/16 02:29:02;;;;;;;31.58;22.27;;;;;;;4.03;100.00;101454.63;2097585;28;20306;-66
2022/12/16 02:30:20;;;;;;;27.83;22.02;;;;;;;3.98;100.00;101447.50;2094519;28;20567;-66
2022/12/16 02:31:48;;;;;;;31.55;21.05;;;;;;;3.94;100.00;101454.06;2095725;28;20648;-66
2022/12/16 02:33:05;;;;;;;29.52;19.73;;;;;;;3.87;100.00;101427.34;2089846;28;20546;-66
2022/12/16 02:34:29;;;;;;;24.45;19.80;;;;;;;3.97;100.00;101439.66;2092012;28;20198;-66
2022/12/16 02:35:45;;;;;;;29.27;19.70;;;;;;;3.90;100.00;101429.34;2075488;28;20212;-66
2022/12/16 02:37:13;;;;;;;25.05;19.15;;;;;;;3.83;100.00;101421.03;2093894;28;20285;-66
2022/12/16 02:38:55;;;;;;;25.55;17.98;;;;;;;3.79;100.00;101411.94;2089700;28;20171;-66
2022/12/16 02:40:00;;;;;;;24.10;17.33;;;;;;;3.88;100.00;101412.47;2092771;28;20202;-66
2022/12/16 02:41:03;;;;;;;22.35;17.55;;;;;;;2.94;100.00;101254.75;2097325;28;20631;-66
2022/12/16 02:42:16;;;;;;;23.90;16.98;;;;;;;3.94;100.00;101396.50;2097839;28;20551;-66
2022/12/16 02:43:33;;;;;;;24.83;18.17;;;;;;;3.90;100.00;101401.16;2096210;28;20169;-66
2022/12/16 02:44:53;;;;;;;26.65;18.08;;;;;;;3.92;100.00;101385.91;2094149;28;20259;-66
2022/12/16 02:45:53;;;;;;;24.70;18.33;;;;;;;3.98;100.00;101381.69;2105638;28;20223;-66
2022/12/16 02:46:54;;;;;;;26.67;18.67;;;;;;;3.88;100.00;101365.88;2109292;27;20670;-67
2022/12/16 02:47:55;;;;;;;27.85;18.77;;;;;;;3.93;100.00;101386.69;2097307;28;20210;-66
2022/12/16 02:48:56;;;;;;;26.50;17.57;;;;;;;4.05;100.00;101408.44;2097561;28;20183;-66
2022/12/16 02:49:56;;;;;;;24.97;16.93;;;;;;;4.10;100.00;101417.13;2096366;28;20198;-67
2022/12/16 02:50:57;;;;;;;29.17;16.97;;;;;;;3.70;100.00;101355.81;2090111;28;20182;-66
2022/12/16 02:51:59;;;;;;;28.03;17.50;;;;;;;4.12;100.00;101408.53;2089739;28;20199;-66
2022/12/16 02:53:01;;;;;;;31.05;17.73;;;;;;;4.16;100.00;101432.09;2096508;28;20275;-66
2022/12/16 02:54:02;;;;;;;25.92;17.00;;;;;;;3.79;100.00;101357.09;2096677;28;20198;-66
2022/12/16 02:55:07;;;;;;;27.27;16.73;;;;;;;3.19;100.00;101239.53;2095037;28;20715;-66
2022/12/16 02:56:23;;;;;;;27.95;16.88;;;;;;;4.14;100.00;101404.25;2093543;28;20196;-66
2022/12/16 02:57:55;;;;;;;30.13;16.40;;;;;;;4.03;100.00;101406.06;2089296;28;20561;-67
2022/12/16 02:59:14;;;;;;;25.58;16.70;;;;;;;4.08;100.00;101405.75;2089840;28;20238;-67
2022/12/16 03:00:20;;;;;;;26.92;15.77;;;;;;;4.12;100.00;101394.81;2093854;28;20564;-66
2022/12/16 03:01:33;;;;;;;28.90;17.35;;;;;;;4.08;100.00;101400.25;2098264;28;20203;-66
2022/12/16 03:02:55;;;;;;;31.17;17.13;;;;;;;4.12;100.00;101397.56;2089999;28;20164;-66
2022/12/16 03:04:05;;;;;;;26.70;16.75;;;;;;;4.22;100.00;101394.97;2094431;28;20207;-66
2022/12/16 03:05:20;;;;;;;32.13;17.45;;;;;;;4.23;100.00;101401.25;2092462;28;20175;-66
2022/12/16 03:06:22;;;;;;;37.03;17.70;;;;;;;4.22;100.00;101396.91;2094498;28;20202;-67
2022/12/16 03:07:26;;;;;;;27.70;16.25;;;;;;;4.21;100.00;101396.13;2088954;28;20221;-66
2022/12/16 03:08:34;;;;;;;29.25;16.27;;;;;;;3.53;100.00;101287.78;2091184;28;20198;-66
2022/12/16 03:09:37;;;;;;;34.38;17.58;;;;;;;4.24;100.00;101398.13;2088911;28;20180;-66
2022/12/16 03:10:45;;;;;;;34.05;17.05;;;;;;;4.27;100.00;101399.34;2095996;28;20424;-66
2022/12/16 03:11:49;;;;;;;27.98;16.65;;;;;;;3.72;100.00;101317.84;2089792;28;20630;-66
2022/12/16 03:12:51;;;;;;;29.90;16.88;;;;;;;4.30;100.00;101393.91;2092734;28;20293;-66
2022/12/16 03:13:54;;;;;;;28.25;16.63;;;;;;;4.34;100.00;101386.50;2096382;28;20207;-66
2022/12/16 03:14:55;;;;;;;29.50;16.80;;;;;;;4.31;100.00;101389.22;2096792;28;20587;-66
2022/12/16 03:15:58;;;;;;;28.13;15.90;;;;;;;3.48;100.00;101253.28;2097548;28;20359;-66
2022/12/16 03:16:59;;;;;;;27.65;17.73;;;;;;;4.42;100.00;101392.88;2091987;28;20650;-66
2022/12/16 03:18:02;;;;;;;34.45;17.92;;;;;;;4.30;100.00;101369.19;2096532;28;20633;-67
2022/12/16 03:19:08;;;;;;;30.77;17.10;;;;;;;4.39;100.00;101369.72;2097273;28;20195;-66
2022/12/16 03:20:15;;;;;;;26.85;16.65;;;;;;;4.46;100.00;101382.75;2097346;28;20756;-66
2022/12/16 03:21:17;;;;;;;28.67;17.30;;;;;;;4.43;100.00;101405.44;2097468;28;20217;-67
2022/12/16 03:22:22;;;;;;;35.85;17.63;;;;;;;4.05;100.00;101315.97;2095501;28;20664;-66
2022/12/16 03:23:46;;;;;;;32.53;18.00;;;;;;;4.54;100.00;101379.72;2089861;28;20964;-67
2022/12/16 03:24:47;;;;;;;32.22;18.02;;;;;;;3.39;100.00;101189.72;2088861;28;20211;-66
2022/12/16 03:25:51;;;;;;;32.13;18.05;;;;;;;4.54;100.00;101365.19;2095131;28;20281;-66
2022/12/16 03:27:01;;;;;;;33.65;18.92;;;;;;;4.55;100.00;101364.81;2093827;28;20222;-66
2022/12/16 03:28:10;;;;;;;48.25;20.98;;;;;;;3.76;100.00;101247.41;2088735;28;20598;-67
2022/12/16 03:29:23;;;;;;;48.55;22.58;;;;;;;4.48;100.00;101366.69;2089056;28;20266;-66
2022/12/16 03:30:38;;;;;;;41.97;22.10;;;;;;;4.39;100.00;101360.69;2091513;28;20261;-67
2022/12/16 03:31:50;;;;;;;47.17;22.95;;;;;;;4.29;100.00;101353.91;2094572;28;20254;-67
2022/12/16 03:32:58;;;;;;;46.33;23.85;;;;;;;4.24;100.00;101358.91;2089195;28;20199;-66
2022/12/16 03:34:18;;;;;;;57.80;23.33;;;;;;;4.19;100.00;101351.00;2089025;28;20246;-67
2022/12/16 03:35:23;;;;;;;46.20;22.23;;;;;;;4.01;100.00;101350.00;2091851;28;20191;-66
2022/12/16 03:36:25;;;;;;;58.15;22.75;;;;;;;4.06;100.00;101355.94;2093772;28;20225;-66
2022/12/16 03:37:31;;;;;;;53.00;22.60;;;;;;;4.06;100.00;101357.91;2091763;28;20643;-66
2022/12/16 03:38:33;;;;;;;48.53;21.85;;;;;;;3.62;100.00;101304.75;2096451;28;20163;-66
2022/12/16 03:39:40;;;;;;;44.38;21.67;;;;;;;4.17;100.00;101372.56;2097523;28;20201;-66
2022/12/16 03:42:02;;;;;;;84.25;23.38;;;;;;;4.16;100.00;101374.50;2089140;28;20176;-66
2022/12/16 03:43:04;;;;;;;64.03;21.23;;;;;;;4.13;100.00;101377.19;2088341;28;20601;-66
2022/12/16 03:44:06;;;;;;;50.80;22.75;;;;;;;3.90;100.00;101329.84;2094981;28;20229;-66
2022/12/16 03:45:12;;;;;;;65.35;22.95;;;;;;;4.13;100.00;101358.78;2095441;28;20644;-66
2022/12/16 03:46:15;;;;;;;68.07;22.05;;;;;;;4.15;100.00;101361.94;2089664;28;20183;-66
2022/12/16 03:47:16;;;;;;;65.13;21.15;;;;;;;4.14;100.00;101352.13;2096711;28;20201;-66
2022/12/16 03:48:19;;;;;;;52.97;21.20;;;;;;;4.27;100.00;101361.69;2090318;28;20192;-66
2022/12/16 03:49:22;;;;;;;45.20;20.40;;;;;;;4.21;100.00;101356.94;2093267;28;20241;-67
2022/12/16 03:50:31;;;;;;;59.58;20.85;;;;;;;4.22;100.00;101373.03;2097364;28;20199;-66
2022/12/16 03:51:31;;;;;;;47.95;20.80;;;;;;;4.15;100.00;101348.22;2097453;28;20229;-66
2022/12/16 03:52:32;;;;;;;73.70;21.97;;;;;;;4.34;100.00;101370.03;2097399;28;20198;-66
2022/12/16 03:53:32;;;;;;;69.50;19.93;;;;;;;4.39;100.00;101371.66;2096482;28;20203;-66
2022/12/16 03:54:33;;;;;;;48.13;21.37;;;;;;;3.93;100.00;101298.94;2096469;28;20179;-66
2022/12/16 03:55:33;;;;;;;48.03;20.57;;;;;;;4.38;100.00;101381.06;2097114;28;20664;-66
2022/12/16 03:56:34;;;;;;;64.30;20.03;;;;;;;4.44;100.00;101383.13;2097401;28;20176;-66
2022/12/16 03:57:34;;;;;;;68.13;19.87;;;;;;;3.49;100.00;101240.38;2090048;28;20191;-66
2022/12/16 03:58:36;;;;;;;63.57;21.53;;;;;;;3.80;100.00;101270.19;2093288;28;20709;-66
2022/12/16 03:59:37;;;;;;;159.23;24.65;;;;;;;4.47;100.00;101378.84;2097547;28;20611;-66
2022/12/16 04:00:38;;;;;;;123.45;23.30;;;;;;;4.50;100.00;101383.56;2092761;28;20208;-66
2022/12/16 04:01:39;;;;;;;44.17;21.87;;;;;;;4.53;100.00;101399.28;2089040;28;20204;-66
2022/12/16 04:02:39;;;;;;;57.63;22.57;;;;;;;4.56;100.00;101404.81;2089358;28;20203;-66
2022/12/16 04:03:40;;;;;;;57.10;22.53;;;;;;;4.60;100.00;101410.34;2088808;28;20283;-66
2022/12/16 04:04:40;;;;;;;55.63;21.43;;;;;;;4.65;100.00;101418.25;2097913;28;20275;-66
2022/12/16 04:05:40;;;;;;;130.43;23.63;;;;;;;3.48;100.00;101231.34;2097153;28;20385;-66
2022/12/16 04:06:41;;;;;;;55.40;21.23;;;;;;;4.65;100.00;101401.78;2090508;28;20618;-66
2022/12/16 04:07:41;;;;;;;68.17;24.23;;;;;;;4.42;100.00;101388.16;2095246;28;20199;-66
2022/12/16 04:08:42;;;;;;;62.70;23.33;;;;;;;4.60;100.00;101388.41;2092598;28;20705;-66
2022/12/16 04:09:42;;;;;;;76.23;24.50;;;;;;;4.57;100.00;101375.44;2091497;28;20343;-67
2022/12/16 04:24:19;;;;;;;62.40;20.65;;;;;;;4.46;100.00;101349.81;2088281;28;20291;-66
2022/12/16 04:25:46;;;;;;;67.95;20.17;;;;;;;4.46;100.00;101339.63;2090614;28;20226;-66
2022/12/16 04:28:06;;;;;;;74.65;21.27;;;;;;;4.41;100.00;101333.69;2087303;28;20697;-66
2022/12/16 04:29:06;;;;;;;35.43;19.83;;;;;;;4.45;100.00;101351.75;2088228;28;20568;-66
2022/12/16 04:30:19;;;;;;;34.03;19.60;;;;;;;4.18;100.00;101303.59;2093108;28;20184;-66
2022/12/16 04:31:19;;;;;;;63.30;20.58;;;;;;;4.66;100.00;101356.72;2088834;28;20189;-66
2022/12/16 04:32:20;;;;;;;52.70;20.53;;;;;;;4.68;100.00;101351.63;2089293;28;20249;-66
2022/12/16 04:34:40;;;;;;;44.75;19.33;;;;;;;3.30;100.00;101161.03;2098783;28;20175;-66
